Time;durP1;ratioP1;P1;durP2;ratioP2;P2;SDS_P1;SDS_P2;PMS_P1;PMS_P2;Temp;Humidity;BMP_temperature;BMP_pressure;BME280_temperature;BME280_humidity;BME280_pressure;Samples;Min_cycle;Max_cycle;Signal;HPM_P1;HPM_P2
2021/01/11 00:02:15;;;;;;;51.03;23.13;;;-2.80;92.10;;;;;;5054873;28;20238;-90
2021/01/11 00:04:41;;;;;;;46.87;23.77;;;-3.00;92.20;;;;;;5056127;28;20230;-88
2021/01/11 00:07:09;;;;;;;48.60;22.97;;;-3.00;92.60;;;;;;5051264;28;20195;-90
2021/01/11 00:09:54;;;;;;;46.33;22.60;;;-2.90;92.30;;;;;;5051532;28;20306;-90
2021/01/11 00:12:22;;;;;;;46.23;21.97;;;-3.00;92.10;;;;;;5052396;28;20213;-88
2021/01/11 00:15:12;;;;;;;44.23;21.63;;;-3.00;92.10;;;;;;5055151;28;20222;-88
2021/01/11 00:17:38;;;;;;;43.07;21.03;;;-3.10;92.00;;;;;;5046281;28;20210;-87
2021/01/11 00:20:07;;;;;;;45.63;21.73;;;-3.10;91.80;;;;;;5051663;28;20198;-88
2021/01/11 00:22:34;;;;;;;46.93;22.07;;;-3.10;91.70;;;;;;5056453;28;20211;-89
2021/01/11 00:25:19;;;;;;;46.00;21.17;;;-3.20;91.80;;;;;;5055362;28;20203;-89
2021/01/11 00:31:21;;;;;;;42.03;20.33;;;-3.20;91.90;;;;;;5036536;28;20205;-89
2021/01/11 00:33:48;;;;;;;41.80;19.20;;;-3.20;91.80;;;;;;5035438;28;20227;-88
2021/01/11 00:36:15;;;;;;;38.43;20.37;;;-3.30;91.70;;;;;;5051013;28;20282;-89
2021/01/11 00:38:41;;;;;;;40.47;19.33;;;-3.30;92.10;;;;;;5048620;28;20222;-89
2021/01/11 00:41:27;;;;;;;42.57;20.40;;;-3.30;92.00;;;;;;5054466;28;20194;-90
2021/01/11 00:43:53;;;;;;;44.90;20.97;;;-3.40;91.70;;;;;;5042184;28;20564;-89
2021/01/11 00:46:28;;;;;;;38.30;19.03;;;-3.50;92.20;;;;;;5054593;28;20206;-89
2021/01/11 00:48:55;;;;;;;44.73;21.13;;;-3.50;92.10;;;;;;5054115;28;20221;-89
2021/01/11 00:51:22;;;;;;;44.50;20.40;;;-3.50;92.00;;;;;;5047996;28;20198;-89
2021/01/11 00:54:15;;;;;;;43.27;20.37;;;-3.40;91.90;;;;;;5039542;28;20241;-89
2021/01/11 00:56:41;;;;;;;82.00;20.60;;;-3.50;91.40;;;;;;5043711;28;20222;-89
2021/01/11 00:59:08;;;;;;;45.80;20.43;;;-3.50;91.50;;;;;;5055000;28;20735;-90
2021/01/11 01:01:35;;;;;;;51.23;20.40;;;-3.50;91.80;;;;;;5055485;28;20661;-88
2021/01/11 01:07:24;;;;;;;44.07;20.13;;;-3.50;92.00;;;;;;5054743;28;20189;-89
2021/01/11 01:09:50;;;;;;;44.40;21.47;;;-3.60;92.40;;;;;;5055120;28;20205;-91
2021/01/11 01:12:16;;;;;;;50.37;20.73;;;-3.60;92.30;;;;;;5055517;28;20202;-89
2021/01/11 01:14:43;;;;;;;40.23;19.77;;;-3.50;91.90;;;;;;5060730;28;20202;-89
2021/01/11 01:17:11;;;;;;;39.83;18.80;;;-3.50;91.80;;;;;;5038963;28;20191;-89
2021/01/11 01:19:37;;;;;;;37.07;19.27;;;-3.60;91.50;;;;;;5044351;28;20204;-89
2021/01/11 01:22:04;;;;;;;40.13;18.27;;;-3.60;92.20;;;;;;5039539;28;20277;-89
2021/01/11 01:24:30;;;;;;;37.33;17.57;;;-3.50;91.90;;;;;;5073710;28;20199;-89
2021/01/11 01:26:56;;;;;;;38.77;18.60;;;-3.50;92.00;;;;;;5070032;28;20243;-89
2021/01/11 01:29:24;;;;;;;49.67;19.73;;;-3.50;92.00;;;;;;5034581;28;20341;-89
2021/01/11 01:31:50;;;;;;;37.80;18.67;;;-3.50;91.80;;;;;;5034602;28;20225;-89
2021/01/11 01:34:20;;;;;;;38.13;18.37;;;-3.50;91.90;;;;;;5034398;28;20238;-90
2021/01/11 01:37:33;;;;;;;37.83;17.43;;;-3.60;91.90;;;;;;5044894;28;20546;-89
2021/01/11 01:39:59;;;;;;;31.57;15.80;;;-3.50;91.70;;;;;;5055249;28;20557;-89
2021/01/11 01:42:25;;;;;;;35.80;16.17;;;-3.60;91.30;;;;;;5055596;28;20281;-88
2021/01/11 01:44:57;;;;;;;33.43;16.27;;;-3.70;91.20;;;;;;5079223;28;20292;-89
2021/01/11 01:47:35;;;;;;;44.30;17.23;;;-3.80;91.30;;;;;;5075231;28;20625;-89
2021/01/11 01:50:09;;;;;;;31.37;15.20;;;-3.80;90.90;;;;;;5073883;28;20204;-91
2021/01/11 01:56:36;;;;;;;29.77;15.63;;;-4.10;91.90;;;;;;5074780;28;20166;-89
2021/01/11 02:22:43;;;;;;;36.10;16.37;;;-3.90;90.50;;;;;;5384482;22;20682;-88
2021/01/11 02:28:23;;;;;;;36.07;17.20;;;-3.80;91.40;;;;;;5101935;28;20235;-89
2021/01/11 02:30:54;;;;;;;42.40;19.03;;;-4.00;90.70;;;;;;5101016;28;20279;-89
2021/01/11 02:33:27;;;;;;;34.33;17.03;;;-4.10;91.30;;;;;;5100763;28;20241;-89
2021/01/11 02:39:16;;;;;;;41.23;17.93;;;-4.00;91.60;;;;;;5099685;28;20316;-88
2021/01/11 02:45:03;;;;;;;37.57;15.97;;;-3.70;91.30;;;;;;5100476;28;20242;-88
2021/01/11 02:47:42;;;;;;;43.13;16.93;;;-3.70;91.10;;;;;;5083873;28;20264;-89
2021/01/11 02:50:22;;;;;;;37.30;17.20;;;-3.80;91.40;;;;;;5079082;28;20328;-89
2021/01/11 02:53:10;;;;;;;42.97;17.60;;;-3.80;91.40;;;;;;5083765;28;20543;-89
2021/01/11 03:47:42;;;;;;;40.07;18.53;;;-3.60;92.20;;;;;;5107407;28;20227;-89
2021/01/11 03:50:10;;;;;;;42.10;18.80;;;-3.40;92.20;;;;;;5095997;28;20198;-88
2021/01/11 03:52:37;;;;;;;39.70;18.03;;;-3.40;91.70;;;;;;5086615;28;20197;-88
2021/01/11 03:55:04;;;;;;;42.37;19.13;;;-3.70;91.60;;;;;;5097049;28;20185;-88
2021/01/11 03:57:31;;;;;;;41.60;18.83;;;-3.80;92.20;;;;;;5081024;28;20217;-88
2021/01/11 04:03:20;;;;;;;40.97;19.23;;;-4.10;93.20;;;;;;5117210;28;20191;-88
2021/01/11 04:05:47;;;;;;;40.77;19.00;;;-4.10;93.20;;;;;;5102269;28;20196;-89
2021/01/11 04:08:13;;;;;;;43.63;19.97;;;-4.00;93.60;;;;;;5096013;28;20204;-89
2021/01/11 04:10:40;;;;;;;40.73;19.03;;;-3.80;93.20;;;;;;5095313;28;20250;-89
2021/01/11 04:13:07;;;;;;;41.70;18.97;;;-3.60;93.30;;;;;;5091071;28;20205;-91
2021/01/11 04:15:34;;;;;;;41.37;19.30;;;-3.50;92.70;;;;;;5096509;28;20202;-90
2021/01/11 04:18:01;;;;;;;37.30;18.47;;;-3.40;92.30;;;;;;5086302;28;20233;-89
2021/01/11 04:20:28;;;;;;;38.90;18.03;;;-3.30;92.00;;;;;;5084266;28;20205;-89
2021/01/11 04:22:55;;;;;;;42.73;19.60;;;-3.10;91.40;;;;;;5093718;28;20239;-90
2021/01/11 04:25:23;;;;;;;38.10;18.87;;;-3.00;91.20;;;;;;5092665;28;20207;-88
2021/01/11 04:27:49;;;;;;;37.27;18.30;;;-3.00;90.80;;;;;;5089529;28;20197;-90
2021/01/11 04:30:16;;;;;;;41.67;19.17;;;-3.00;90.70;;;;;;5080280;28;20664;-90
2021/01/11 04:32:43;;;;;;;42.53;19.93;;;-3.00;90.70;;;;;;5086868;28;20252;-89
2021/01/11 04:35:23;;;;;;;40.57;19.47;;;-3.10;90.90;;;;;;5098377;28;20195;-89
2021/01/11 04:37:51;;;;;;;37.63;18.33;;;-3.00;90.90;;;;;;5089892;28;20214;-88
2021/01/11 04:40:17;;;;;;;37.50;18.33;;;-3.00;90.80;;;;;;5090039;28;20444;-89
2021/01/11 04:42:50;;;;;;;40.13;18.20;;;-3.00;90.70;;;;;;5090400;28;20201;-90
2021/01/11 04:45:18;;;;;;;35.50;17.60;;;-3.10;90.70;;;;;;5082135;28;20195;-89
2021/01/11 04:47:45;;;;;;;36.23;18.23;;;-3.20;90.90;;;;;;5092037;28;20640;-90
2021/01/11 04:50:12;;;;;;;37.07;18.37;;;-3.20;91.20;;;;;;5094849;28;20253;-90
2021/01/11 04:52:39;;;;;;;36.57;18.27;;;-3.20;91.00;;;;;;5096139;28;20227;-91
2021/01/11 04:55:08;;;;;;;38.37;18.03;;;-3.20;90.70;;;;;;5089374;28;20670;-89
2021/01/11 04:57:36;;;;;;;37.23;18.57;;;-3.30;90.60;;;;;;5096895;28;20196;-88
2021/01/11 05:00:23;;;;;;;36.67;17.60;;;-3.30;90.60;;;;;;5088474;28;20236;-88
2021/01/11 05:02:57;;;;;;;37.27;18.63;;;-3.20;90.70;;;;;;5095213;28;20256;-88
2021/01/11 05:05:24;;;;;;;36.20;17.80;;;-3.40;90.40;;;;;;5087211;28;20709;-89
2021/01/11 05:07:51;;;;;;;33.27;17.60;;;-3.40;90.90;;;;;;5093695;28;20642;-89
2021/01/11 05:10:23;;;;;;;37.10;17.83;;;-3.40;90.60;;;;;;5111254;28;20240;-88
2021/01/11 05:13:23;;;;;;;37.10;17.37;;;-3.40;90.40;;;;;;5094559;28;20199;-88
2021/01/11 05:15:49;;;;;;;39.87;17.67;;;-3.40;90.40;;;;;;5096224;28;20202;-88
2021/01/11 05:18:17;;;;;;;35.73;18.17;;;-3.40;90.40;;;;;;5104286;28;20228;-89
2021/01/11 05:24:42;;;;;;;36.20;15.90;;;-3.40;90.40;;;;;;5096103;28;20203;-90
2021/01/11 05:27:11;;;;;;;33.97;16.43;;;-3.40;90.10;;;;;;5094271;28;20215;-90
2021/01/11 05:29:38;;;;;;;34.33;16.87;;;-3.60;89.80;;;;;;5093855;28;20258;-90
2021/01/11 05:32:06;;;;;;;33.70;16.80;;;-3.60;90.20;;;;;;5075397;28;20292;-89
2021/01/11 05:34:45;;;;;;;34.30;17.20;;;-3.60;90.20;;;;;;5085580;28;20272;-89
2021/01/11 05:37:27;;;;;;;34.03;16.30;;;-3.70;90.50;;;;;;5103472;28;20197;-90
2021/01/11 05:40:36;;;;;;;33.87;17.57;;;-3.80;89.40;;;;;;5119192;28;20237;-90
2021/01/11 05:43:04;;;;;;;33.13;15.93;;;-3.80;89.90;;;;;;5100449;28;20255;-90
2021/01/11 05:45:33;;;;;;;32.73;16.33;;;-3.80;89.70;;;;;;5100351;28;20193;-90
2021/01/11 05:48:05;;;;;;;34.53;16.57;;;-3.80;89.40;;;;;;5093319;28;20262;-90
2021/01/11 05:50:34;;;;;;;37.40;17.33;;;-3.90;90.00;;;;;;5090277;28;20189;-90
2021/01/11 05:53:01;;;;;;;37.13;17.77;;;-4.00;89.70;;;;;;5098740;28;20252;-90
2021/01/11 05:56:00;;;;;;;35.83;17.20;;;-4.00;90.10;;;;;;5098159;28;20545;-90
2021/01/11 05:58:27;;;;;;;41.73;18.40;;;-4.00;90.00;;;;;;5097129;28;20208;-90
2021/01/11 06:03:26;;;;;;;36.53;17.03;;;-3.90;89.80;;;;;;5056042;28;20240;-90
2021/01/11 06:05:53;;;;;;;36.70;17.83;;;-3.90;90.00;;;;;;5057295;28;20204;-89
2021/01/11 06:08:20;;;;;;;35.33;17.03;;;-3.70;89.90;;;;;;5057048;28;20225;-89
2021/01/11 06:10:47;;;;;;;37.47;17.20;;;-3.70;89.00;;;;;;5056404;28;20212;-89
2021/01/11 06:13:13;;;;;;;34.50;17.03;;;-3.70;88.30;;;;;;5057490;28;20208;-90
2021/01/11 06:15:52;;;;;;;37.40;17.23;;;-3.80;89.00;;;;;;5066678;28;20204;-90
2021/01/11 06:18:19;;;;;;;35.00;17.50;;;-3.80;89.40;;;;;;5077174;28;20576;-89
2021/01/11 06:20:46;;;;;;;36.27;17.63;;;-3.80;89.90;;;;;;5059670;28;20247;-89
2021/01/11 06:23:26;;;;;;;34.63;18.23;;;-3.90;89.20;;;;;;5056183;28;20571;-90
2021/01/11 06:25:53;;;;;;;32.27;16.40;;;-3.90;90.00;;;;;;5056181;28;20248;-92
2021/01/11 06:28:31;;;;;;;38.43;17.20;;;-3.90;89.90;;;;;;5058155;28;20239;-88
2021/01/11 06:31:11;;;;;;;34.37;16.73;;;-4.00;90.10;;;;;;5050329;28;20576;-92
2021/01/11 06:33:39;;;;;;;34.40;16.87;;;-4.00;89.90;;;;;;5055472;28;20197;-93
2021/01/11 06:36:20;;;;;;;32.80;16.17;;;-4.00;89.70;;;;;;5051263;28;20190;-89
2021/01/11 06:38:47;;;;;;;32.57;15.40;;;-3.90;89.70;;;;;;5052291;28;20221;-90
2021/01/11 06:41:17;;;;;;;35.73;17.10;;;-3.90;90.00;;;;;;5048277;28;20201;-93
2021/01/11 06:43:45;;;;;;;37.80;16.63;;;-3.90;89.10;;;;;;5051645;28;20240;-93
2021/01/11 06:46:29;;;;;;;35.10;17.33;;;-4.00;89.00;;;;;;5048589;28;20202;-91
2021/01/11 06:48:56;;;;;;;33.50;16.97;;;-4.00;89.50;;;;;;5038332;28;20697;-89
2021/01/11 06:51:30;;;;;;;35.77;16.90;;;-3.90;89.70;;;;;;5038030;28;20206;-89
2021/01/11 06:54:30;;;;;;;34.10;15.87;;;-3.90;89.40;;;;;;5038505;28;20219;-93
2021/01/11 06:57:34;;;;;;;30.93;16.20;;;-3.80;89.20;;;;;;5036118;28;20288;-93
2021/01/11 07:00:08;;;;;;;37.37;17.47;;;-3.90;89.30;;;;;;5043879;28;20221;-91
2021/01/11 07:02:41;;;;;;;34.47;17.17;;;-4.00;89.50;;;;;;5047603;28;20210;-92
2021/01/11 07:05:36;;;;;;;32.83;16.57;;;-3.90;89.40;;;;;;5048146;28;20218;-88
2021/01/11 07:08:04;;;;;;;38.37;17.90;;;-3.90;88.50;;;;;;5039520;28;20232;-92
2021/01/11 07:10:31;;;;;;;32.67;16.57;;;-4.20;88.50;;;;;;5049579;28;20203;-90
2021/01/11 07:13:34;;;;;;;36.03;17.37;;;-4.30;89.70;;;;;;5035281;28;20194;-94
2021/01/11 07:18:56;;;;;;;30.73;15.57;;;-4.20;89.70;;;;;;5027654;28;20222;-95
2021/01/11 07:21:43;;;;;;;32.07;15.80;;;-4.10;89.50;;;;;;5050581;28;20641;-95
2021/01/11 07:26:55;;;;;;;32.97;15.67;;;-4.10;90.00;;;;;;5061344;28;20212;-92
2021/01/11 07:29:21;;;;;;;34.57;16.47;;;-4.10;89.80;;;;;;5050852;28;20221;-92
2021/01/11 07:32:01;;;;;;;33.40;16.47;;;-4.10;89.40;;;;;;5049557;28;20683;-91
2021/01/11 07:34:29;;;;;;;34.30;16.00;;;-4.10;90.00;;;;;;5055856;28;20240;-92
2021/01/11 07:36:57;;;;;;;39.70;17.33;;;-4.20;89.80;;;;;;5050048;28;20206;-92
2021/01/11 07:39:26;;;;;;;33.27;16.67;;;-4.00;90.10;;;;;;5048755;28;20309;-92
2021/01/11 07:41:55;;;;;;;32.60;16.43;;;-3.90;89.30;;;;;;5047568;28;20220;-92
2021/01/11 07:44:24;;;;;;;34.83;17.30;;;-3.80;89.70;;;;;;5053181;28;20231;-92
2021/01/11 07:46:59;;;;;;;35.27;17.20;;;-3.70;89.20;;;;;;5050109;28;20212;-92
2021/01/11 07:49:26;;;;;;;34.87;16.60;;;-3.80;89.30;;;;;;5042191;28;20260;-92
2021/01/11 07:51:54;;;;;;;34.33;16.33;;;-3.70;89.80;;;;;;5046659;28;20189;-92
2021/01/11 07:54:22;;;;;;;34.00;16.67;;;-3.60;88.30;;;;;;5044329;28;20590;-92
2021/01/11 07:56:50;;;;;;;36.67;16.87;;;-3.50;88.10;;;;;;5047861;28;20222;-91
2021/01/11 07:59:17;;;;;;;34.80;17.00;;;-3.50;87.10;;;;;;5038783;28;20234;-93
2021/01/11 08:01:51;;;;;;;38.30;17.17;;;-3.40;87.40;;;;;;5050495;28;20304;-93
2021/01/11 08:04:19;;;;;;;32.67;15.37;;;-3.40;87.30;;;;;;5034635;28;20252;-94
2021/01/11 08:10:16;;;;;;;31.90;15.27;;;-3.40;84.40;;;;;;5030675;28;20665;-95
2021/01/11 08:12:42;;;;;;;29.97;15.87;;;-3.40;85.80;;;;;;5040452;28;20209;-93
2021/01/11 08:15:09;;;;;;;35.77;17.30;;;-3.30;85.10;;;;;;5048617;28;20277;-93
2021/01/11 08:20:24;;;;;;;36.13;16.17;;;-3.30;83.80;;;;;;5037558;28;20224;-93
2021/01/11 08:29:02;;;;;;;37.80;17.77;;;-3.50;86.00;;;;;;5049855;28;20217;-93
2021/01/11 08:34:14;;;;;;;38.10;17.20;;;-3.50;85.40;;;;;;5044642;28;20508;-92
2021/01/11 08:36:42;;;;;;;34.20;16.50;;;-3.50;85.30;;;;;;5041637;28;20206;-93
2021/01/11 08:42:35;;;;;;;34.87;17.47;;;-3.40;83.70;;;;;;5047727;28;20209;-93
2021/01/11 08:45:29;;;;;;;36.23;17.07;;;-3.20;83.90;;;;;;5040988;28;20218;-94
2021/01/11 08:48:01;;;;;;;32.33;16.90;;;-3.10;83.90;;;;;;5044621;28;20194;-92
2021/01/11 08:50:58;;;;;;;35.63;18.20;;;-3.10;83.90;;;;;;5042215;28;20597;-94
2021/01/11 08:53:28;;;;;;;36.27;17.43;;;-3.10;84.10;;;;;;5047285;28;20330;-94
2021/01/11 08:55:57;;;;;;;37.53;17.40;;;-3.20;83.80;;;;;;5047193;28;20208;-91
2021/01/11 08:58:23;;;;;;;35.80;16.90;;;-3.40;84.90;;;;;;5036174;28;20234;-92
2021/01/11 09:00:50;;;;;;;34.50;16.43;;;-3.50;86.20;;;;;;5041476;28;20720;-91
2021/01/11 09:03:16;;;;;;;33.23;16.00;;;-3.30;87.70;;;;;;5037853;28;20572;-90
2021/01/11 09:05:44;;;;;;;36.10;16.63;;;-3.10;85.40;;;;;;5039848;28;20214;-91
2021/01/11 09:08:18;;;;;;;32.77;16.67;;;-2.90;85.40;;;;;;5039569;28;20341;-92
2021/01/11 09:10:46;;;;;;;38.40;17.67;;;-2.80;84.10;;;;;;5046800;28;20203;-92
2021/01/11 09:13:19;;;;;;;34.43;16.00;;;-2.80;84.10;;;;;;5041280;28;20231;-91
2021/01/11 09:15:46;;;;;;;33.50;16.53;;;-3.30;83.70;;;;;;5043184;28;20205;-92
2021/01/11 09:18:14;;;;;;;38.80;16.90;;;-3.40;85.20;;;;;;5050381;28;20516;-92
2021/01/11 09:20:42;;;;;;;30.30;16.30;;;-3.20;86.10;;;;;;5036813;28;20208;-92
2021/01/11 09:23:08;;;;;;;35.20;17.13;;;-2.90;84.60;;;;;;5041639;28;20230;-91
2021/01/11 09:25:35;;;;;;;29.80;15.67;;;-2.60;84.20;;;;;;5048126;28;20625;-91
2021/01/11 09:28:04;;;;;;;33.17;15.83;;;-2.30;82.40;;;;;;5043252;28;20233;-92
2021/01/11 09:30:31;;;;;;;34.20;17.07;;;-2.10;80.50;;;;;;5045902;28;20216;-90
2021/01/11 09:32:58;;;;;;;36.40;17.90;;;-2.30;79.50;;;;;;5042316;28;20224;-91
2021/01/11 09:35:25;;;;;;;33.37;16.93;;;-2.80;81.50;;;;;;5036968;28;20203;-91
2021/01/11 09:37:52;;;;;;;36.87;17.53;;;-3.00;83.90;;;;;;5031379;28;20201;-90
2021/01/11 09:40:19;;;;;;;33.40;17.40;;;-3.10;83.90;;;;;;5030168;28;20207;-91
2021/01/11 09:42:46;;;;;;;31.10;17.03;;;-3.00;84.00;;;;;;5031941;28;20204;-90
2021/01/11 09:45:15;;;;;;;34.37;16.67;;;-2.70;84.20;;;;;;5030933;28;20557;-91
2021/01/11 09:47:43;;;;;;;31.63;17.33;;;-2.50;83.30;;;;;;5030312;28;20200;-89
2021/01/11 09:50:11;;;;;;;32.43;16.93;;;-2.20;82.40;;;;;;5030867;28;20198;-90
2021/01/11 09:52:37;;;;;;;35.23;17.17;;;-1.90;80.00;;;;;;5034513;28;20359;-90
2021/01/11 09:55:05;;;;;;;31.17;16.10;;;-1.60;78.20;;;;;;5031968;28;20210;-90
2021/01/11 09:57:35;;;;;;;28.90;16.53;;;-1.90;77.40;;;;;;5030315;28;20220;-90
2021/01/11 10:00:02;;;;;;;31.20;16.47;;;-2.00;79.60;;;;;;5028332;28;20258;-90
2021/01/11 10:02:28;;;;;;;27.90;15.57;;;-1.70;80.10;;;;;;5028165;28;20292;-90
2021/01/11 10:04:55;;;;;;;35.40;17.00;;;-1.50;77.90;;;;;;5024271;28;20240;-91
2021/01/11 10:07:22;;;;;;;32.50;15.90;;;-1.50;78.00;;;;;;5028606;28;20209;-90
2021/01/11 10:09:48;;;;;;;35.53;17.17;;;-1.80;78.10;;;;;;5032782;28;20222;-90
2021/01/11 10:12:15;;;;;;;35.77;16.80;;;-2.00;79.10;;;;;;5028635;28;20227;-90
2021/01/11 10:14:41;;;;;;;33.87;17.93;;;-2.20;79.70;;;;;;5028427;28;20218;-90
2021/01/11 10:17:07;;;;;;;35.93;16.70;;;-2.60;81.50;;;;;;5028500;28;20202;-90
2021/01/11 10:19:34;;;;;;;31.80;17.20;;;-2.40;83.10;;;;;;5032061;28;20676;-91
2021/01/11 10:22:03;;;;;;;32.60;17.50;;;-2.40;82.50;;;;;;5035781;28;20615;-90
2021/01/11 10:24:29;;;;;;;32.93;17.40;;;-2.20;81.90;;;;;;5035927;28;20281;-91
2021/01/11 10:26:56;;;;;;;30.00;17.40;;;-2.00;81.20;;;;;;5033026;28;20205;-90
2021/01/11 10:29:25;;;;;;;29.97;16.77;;;-1.60;79.40;;;;;;5037032;28;20230;-92
2021/01/11 10:31:52;;;;;;;33.83;17.07;;;-1.20;76.60;;;;;;5034708;28;20201;-87
2021/01/11 10:34:20;;;;;;;32.33;17.53;;;-0.90;76.30;;;;;;5038908;28;20237;-87
2021/01/11 10:36:48;;;;;;;31.80;16.33;;;-0.80;76.00;;;;;;5041030;28;20202;-84
2021/01/11 10:39:19;;;;;;;28.83;16.70;;;-0.70;75.90;;;;;;5047179;28;20209;-87
2021/01/11 10:41:48;;;;;;;28.37;16.20;;;-0.80;75.20;;;;;;5053126;28;20245;-89
2021/01/11 10:44:14;;;;;;;32.83;16.83;;;-0.90;75.10;;;;;;5035643;28;20233;-85
2021/01/11 10:46:41;;;;;;;32.70;17.37;;;-1.30;75.70;;;;;;5037419;28;20728;-85
2021/01/11 10:49:08;;;;;;;34.23;17.47;;;-1.40;75.20;;;;;;5039411;28;20234;-84
2021/01/11 10:51:34;;;;;;;33.33;17.23;;;-1.50;76.40;;;;;;5041189;28;20186;-84
2021/01/11 10:54:03;;;;;;;32.07;17.47;;;-1.80;77.10;;;;;;5033756;28;20217;-86
2021/01/11 10:56:30;;;;;;;33.80;17.90;;;-1.90;78.60;;;;;;5030123;28;20423;-89
2021/01/11 10:58:57;;;;;;;34.37;17.67;;;-1.80;78.20;;;;;;5035017;28;20328;-89
2021/01/11 11:01:24;;;;;;;29.83;16.73;;;-1.70;79.00;;;;;;5038629;28;20587;-87
2021/01/11 11:03:50;;;;;;;33.27;17.27;;;-1.60;79.40;;;;;;5040524;28;20233;-86
2021/01/11 11:06:21;;;;;;;29.17;15.60;;;-1.40;80.40;;;;;;5043272;28;20291;-89
2021/01/11 11:08:48;;;;;;;29.43;16.43;;;-1.00;75.50;;;;;;5034518;28;20231;-85
2021/01/11 11:11:16;;;;;;;30.67;16.97;;;-1.00;73.60;;;;;;5032165;28;20195;-90
2021/01/11 11:13:44;;;;;;;31.10;16.37;;;-1.10;74.80;;;;;;5041819;28;20234;-88
2021/01/11 11:16:12;;;;;;;28.77;15.47;;;-1.20;75.40;;;;;;5047078;28;20195;-87
2021/01/11 11:18:39;;;;;;;32.07;17.10;;;-1.10;76.70;;;;;;5045788;28;20248;-87
2021/01/11 11:21:06;;;;;;;31.63;16.83;;;-0.90;75.40;;;;;;5035715;28;20215;-90
2021/01/11 11:23:33;;;;;;;30.47;17.17;;;-0.70;73.90;;;;;;5043125;28;20229;-90
2021/01/11 11:26:00;;;;;;;30.20;16.37;;;-0.10;70.90;;;;;;5040629;28;20287;-91
2021/01/11 11:28:28;;;;;;;32.43;17.07;;;0.20;67.30;;;;;;5043738;28;20224;-88
2021/01/11 11:30:55;;;;;;;30.20;16.37;;;0.20;67.30;;;;;;5054303;28;20211;-87
2021/01/11 11:33:21;;;;;;;32.13;17.30;;;0.70;65.20;;;;;;5037315;28;20232;-85
2021/01/11 11:35:49;;;;;;;31.87;17.63;;;0.60;65.10;;;;;;5042119;28;20208;-86
2021/01/11 11:38:16;;;;;;;34.37;17.20;;;0.90;65.40;;;;;;5038230;28;20234;-85
2021/01/11 11:40:42;;;;;;;29.50;17.37;;;1.30;60.70;;;;;;5045353;28;20204;-84
2021/01/11 11:43:09;;;;;;;35.87;18.17;;;1.30;59.20;;;;;;5044081;28;20229;-87
2021/01/11 11:45:35;;;;;;;29.10;16.80;;;1.30;60.30;;;;;;5041615;28;20256;-86
2021/01/11 11:48:03;;;;;;;30.67;17.47;;;1.20;61.20;;;;;;5043934;28;20220;-87
2021/01/11 11:50:30;;;;;;;26.10;15.63;;;0.70;62.00;;;;;;5047677;28;20528;-89
2021/01/11 11:52:57;;;;;;;35.70;17.77;;;0.70;62.10;;;;;;5033838;28;20206;-85
2021/01/11 11:55:23;;;;;;;31.47;17.57;;;0.20;64.70;;;;;;5043160;28;20206;-88
2021/01/11 11:57:50;;;;;;;31.93;17.60;;;0.00;64.40;;;;;;5049309;28;20201;-90
2021/01/11 12:00:18;;;;;;;29.80;17.07;;;-0.30;64.30;;;;;;5046499;28;20237;-89
2021/01/11 12:08:57;;;;;;;32.00;17.20;;;0.10;64.60;;;;;;5036877;28;20248;-89
2021/01/11 12:11:24;;;;;;;32.90;17.47;;;0.10;65.30;;;;;;5037379;28;20549;-90
2021/01/11 12:14:10;;;;;;;33.27;16.87;;;0.40;68.30;;;;;;5031218;28;20221;-90
2021/01/11 12:16:36;;;;;;;31.23;17.90;;;0.90;65.40;;;;;;5039824;28;20545;-91
2021/01/11 12:19:03;;;;;;;35.00;18.63;;;0.90;65.40;;;;;;5045897;28;20239;-90
2021/01/11 12:21:35;;;;;;;30.97;17.60;;;1.20;61.30;;;;;;5042220;28;20215;-89
2021/01/11 12:24:03;;;;;;;38.13;17.50;;;1.30;63.30;;;;;;5043018;28;20697;-89
2021/01/11 12:26:38;;;;;;;33.73;17.53;;;1.20;61.00;;;;;;5046429;28;20202;-88
2021/01/11 12:29:05;;;;;;;29.80;17.00;;;1.00;60.80;;;;;;5038710;28;20232;-88
2021/01/11 12:31:34;;;;;;;33.63;16.77;;;1.00;62.30;;;;;;5044701;28;20212;-88
2021/01/11 12:34:00;;;;;;;35.57;17.57;;;0.90;59.90;;;;;;5054799;28;20256;-91
2021/01/11 12:42:12;;;;;;;44.13;19.90;;;0.60;65.10;;;;;;5044122;28;20800;-92
2021/01/11 12:44:39;;;;;;;43.00;20.57;;;0.40;64.90;;;;;;5044327;28;20225;-89
2021/01/11 12:47:07;;;;;;;34.70;19.27;;;0.40;68.10;;;;;;5048874;28;20727;-89
2021/01/11 12:49:36;;;;;;;36.97;19.70;;;0.40;66.20;;;;;;5033260;28;20226;-90
2021/01/11 12:52:02;;;;;;;35.33;18.40;;;0.10;67.00;;;;;;5050529;28;20256;-90
2021/01/11 12:54:30;;;;;;;41.83;20.57;;;-0.20;69.90;;;;;;5048443;28;20225;-89
2021/01/11 12:56:56;;;;;;;38.33;20.40;;;-0.40;70.80;;;;;;5053405;28;20184;-91
2021/01/11 12:59:24;;;;;;;39.90;20.53;;;-0.90;71.80;;;;;;5067276;28;20286;-89
2021/01/11 13:01:53;;;;;;;36.63;18.63;;;-1.10;74.40;;;;;;5047459;28;20207;-89
2021/01/11 13:04:20;;;;;;;37.70;19.70;;;-1.20;76.70;;;;;;5046424;28;20222;-89
2021/01/11 13:06:46;;;;;;;37.97;19.80;;;-1.20;76.60;;;;;;5045474;28;20209;-89
2021/01/11 13:09:12;;;;;;;36.27;18.37;;;-1.20;77.10;;;;;;5048999;28;20225;-89
2021/01/11 13:11:41;;;;;;;34.77;18.17;;;-1.00;76.00;;;;;;5047549;28;20572;-89
2021/01/11 13:14:08;;;;;;;40.27;19.43;;;-1.20;75.50;;;;;;5042820;28;20238;-89
2021/01/11 13:16:35;;;;;;;36.10;18.83;;;-1.20;76.80;;;;;;5041833;28;20206;-89
2021/01/11 13:19:03;;;;;;;42.67;18.03;;;-1.30;76.00;;;;;;5047373;28;20316;-91
2021/01/11 13:21:32;;;;;;;42.00;19.30;;;-1.30;76.20;;;;;;5036019;28;20199;-92
2021/01/11 13:24:00;;;;;;;37.07;18.53;;;-1.30;76.50;;;;;;5042572;28;20221;-91
2021/01/11 13:26:28;;;;;;;38.80;19.33;;;-1.20;77.10;;;;;;5046296;28;20209;-91
2021/01/11 13:28:57;;;;;;;43.90;20.20;;;-1.20;77.40;;;;;;5039155;28;20221;-91
2021/01/11 13:31:24;;;;;;;39.83;19.70;;;-1.00;78.20;;;;;;5045073;28;20201;-91
2021/01/11 13:33:50;;;;;;;43.27;21.93;;;-0.90;77.20;;;;;;5048135;28;20221;-90
2021/01/11 13:36:20;;;;;;;44.10;22.30;;;-0.90;77.90;;;;;;5039584;28;20203;-91
2021/01/11 13:38:47;;;;;;;43.00;21.83;;;-1.10;79.10;;;;;;5047348;28;20230;-91
2021/01/11 13:41:14;;;;;;;41.13;21.50;;;-1.10;79.00;;;;;;5041964;28;20313;-91
2021/01/11 13:43:40;;;;;;;45.87;21.87;;;-1.10;79.30;;;;;;5041631;28;20233;-91
2021/01/11 13:46:08;;;;;;;54.00;22.67;;;-1.20;79.50;;;;;;5042201;28;20213;-91
2021/01/11 13:48:34;;;;;;;45.50;21.97;;;-1.30;79.90;;;;;;5035902;28;20658;-91
2021/01/11 13:51:01;;;;;;;49.33;22.60;;;-1.10;80.80;;;;;;5040117;28;20244;-90
2021/01/11 13:53:27;;;;;;;46.70;22.40;;;-0.90;80.90;;;;;;5034559;28;20226;-93
2021/01/11 13:55:53;;;;;;;43.23;22.33;;;-1.00;79.40;;;;;;5040686;28;20657;-93
2021/01/11 13:58:20;;;;;;;53.60;22.87;;;-1.00;79.30;;;;;;5033384;28;20250;-94
2021/01/11 14:03:28;;;;;;;46.13;22.53;;;-1.10;80.00;;;;;;5035863;28;20236;-92
2021/01/11 14:05:58;;;;;;;47.87;23.03;;;-1.30;81.10;;;;;;5037927;28;20256;-92
2021/01/11 14:08:25;;;;;;;43.37;22.27;;;-1.40;81.30;;;;;;5048051;28;20235;-93
2021/01/11 14:10:51;;;;;;;47.37;22.00;;;-1.60;82.60;;;;;;5048509;28;20197;-92
2021/01/11 14:13:18;;;;;;;49.80;21.97;;;-1.50;82.30;;;;;;5045218;28;20695;-90
2021/01/11 14:15:45;;;;;;;47.17;22.23;;;-1.60;82.20;;;;;;5049176;28;20440;-90
2021/01/11 14:18:11;;;;;;;50.93;22.67;;;-1.60;82.10;;;;;;5044958;28;20229;-91
2021/01/11 14:20:41;;;;;;;48.20;22.10;;;-1.60;83.00;;;;;;5051361;28;20207;-92
2021/01/11 14:23:07;;;;;;;48.63;22.13;;;-1.60;83.30;;;;;;5065544;28;20583;-90
2021/01/11 14:25:34;;;;;;;48.03;21.97;;;-1.70;82.50;;;;;;5056085;28;20198;-89
2021/01/11 14:28:00;;;;;;;45.43;22.47;;;-1.70;82.20;;;;;;5044228;28;20552;-89
2021/01/11 14:30:27;;;;;;;43.73;21.17;;;-1.80;84.00;;;;;;5049533;28;20205;-89
2021/01/11 14:32:54;;;;;;;47.57;21.73;;;-1.80;84.20;;;;;;5048125;28;20214;-92
2021/01/11 14:35:21;;;;;;;51.13;22.20;;;-1.90;84.70;;;;;;5046967;28;20202;-90
2021/01/11 14:37:49;;;;;;;42.30;21.77;;;-2.00;84.50;;;;;;5048279;28;20563;-87
2021/01/11 14:40:16;;;;;;;50.67;22.10;;;-2.10;84.50;;;;;;5043529;28;20239;-87
2021/01/11 14:42:43;;;;;;;47.23;21.03;;;-2.10;84.50;;;;;;5043150;28;20205;-87
2021/01/11 14:45:12;;;;;;;49.73;22.13;;;-2.10;84.50;;;;;;5043527;28;20202;-83
2021/01/11 14:47:38;;;;;;;47.50;22.33;;;-2.10;84.50;;;;;;5046751;28;20262;-85
2021/01/11 14:50:06;;;;;;;44.20;22.53;;;-2.10;84.50;;;;;;5043843;28;20224;-85
2021/01/11 14:52:32;;;;;;;46.07;21.20;;;-2.10;84.50;;;;;;5036449;28;20207;-84
2021/01/11 14:55:00;;;;;;;44.83;21.77;;;-2.10;84.50;;;;;;5048356;28;20224;-85
2021/01/11 14:57:26;;;;;;;53.23;22.00;;;-2.20;84.40;;;;;;5047118;28;20542;-83
2021/01/11 14:59:52;;;;;;;48.00;21.93;;;-2.30;84.40;;;;;;5043600;28;20236;-84
2021/01/11 15:02:19;;;;;;;48.97;22.37;;;-2.30;84.60;;;;;;5039778;28;20212;-83
2021/01/11 15:04:45;;;;;;;51.97;22.63;;;-2.40;85.50;;;;;;5048788;28;20224;-84
2021/01/11 15:07:12;;;;;;;52.27;22.10;;;-2.60;87.50;;;;;;5059996;28;20208;-85